Impacts TAF Board
For situational awareness. Not to be used for flight planning purposes.
IDs:

KFLL - Ft Lauderdale-Hollyw, FL, US

Issued at 0856 UTC 21 Sep 2018
Updated at 1135 UTC 21 Sep 2018
Potential Impact None Slight Moderate High
Time1053Z 21/12Z 21/13Z 21/14Z 21/15Z 21/16Z 21/17Z 21/18Z 21/19Z 21/20Z 21/21Z 21/22Z 21/23Z 22/00Z>>
Type OBS PRVL PRVL PRVL PRVL PRVL PRVL PRVL PRVL PRVL PRVL PRVL PRVL PRVL
VIS 10 >6 >6 >6 >6 >6 >6 >6 >6 >6 >6 >6 >6 >6
CIG -- -- -- -- -- -- -- -- 50 50 50 50 50 250
Cover SCT SCT SCT SCT SCT SCT SCT SCT BKN BKN BKN BKN BKN BKN
FltCat VFR VFR VFR VFR VFR VFR VFR VFR VFR VFR VFR VFR VFR VFR
WX -- -- VCSH VCSH VCSH VCSH VCSH VCSH VCTS VCTS VCTS VCTS VCTS --
WDir 40 100 90 90 90 90 90 90 110 110 110 110 110 100
WSpd 4 7 9 9 9 9 9 9 10 10 10 10 10 6
WGst -- -- -- -- -- -- -- -- -- -- -- -- -- --
Raw TAF
KFLL 210856Z 2109/2212 10007KT P6SM SCT040 SCT250
  FM211300 09009KT P6SM VCSH SCT030 SCT250
  FM211900 11010KT P6SM VCTS SCT025CB BKN050 BKN250
  FM220000 10006KT P6SM FEW030 SCT060 BKN250


Raw METAR
KFLL 211053Z 04004KT 10SM FEW025 FEW120 SCT250 27/23 A3001 RMK AO2 SLP160 FRQ LTGIC DSNT E CB DSNT E MOV W TCU DSNT NE T02670233
KFLL 210953Z 00000KT 10SM FEW021 SCT070 SCT110 27/22 A3000 RMK AO2 SLP157 T02670222
KFLL 210853Z 19003KT 10SM SCT024 SCT055 SCT080 27/22 A2999 RMK AO2 SLP155 T02720222 56014

METAR Board
Radar Display
Forecast Discussion
For situational awareness. Not to be used for flight planning purposes.